createdAt,value
2023-04-27T00:00:46.790Z,100838.47
2023-04-27T00:03:14.607Z,100834.38
2023-04-27T00:05:43.041Z,100828.97
2023-04-27T00:08:12.210Z,100864.81
2023-04-27T00:10:39.942Z,100891.06
2023-04-27T00:13:07.716Z,100892.84
2023-04-27T00:15:35.442Z,100884.53
2023-04-27T00:18:03.216Z,100897.06
2023-04-27T00:20:30.986Z,100886.56
2023-04-27T00:22:58.774Z,100883.31
2023-04-27T00:25:27.890Z,100886.84
2023-04-27T00:27:55.580Z,100888.75
2023-04-27T00:30:23.436Z,100880.19
2023-04-27T00:32:51.136Z,100875.94
2023-04-27T00:35:18.958Z,100869.28
2023-04-27T00:37:46.831Z,100858.94
2023-04-27T00:40:14.879Z,100850.78
2023-04-27T00:42:43.955Z,100844.91
2023-04-27T00:45:13.495Z,100849.00
2023-04-27T00:47:41.299Z,100843.72
2023-04-27T00:50:10.542Z,100849.00
2023-04-27T00:52:38.758Z,100846.56
2023-04-27T00:55:07.340Z,100852.81
2023-04-27T00:57:35.758Z,100842.44
2023-04-27T01:00:06.787Z,100841.25
2023-04-27T01:02:34.779Z,100843.81
2023-04-27T01:05:03.386Z,100838.91
2023-04-27T01:07:31.071Z,100821.31
2023-04-27T01:09:58.684Z,100827.88
2023-04-27T01:12:26.482Z,100824.94
2023-04-27T01:14:54.143Z,100836.56
2023-04-27T01:17:23.265Z,100830.69
2023-04-27T01:19:51.385Z,100823.22
2023-04-27T01:22:19.081Z,100819.88
2023-04-27T01:24:48.248Z,100824.63
2023-04-27T01:27:15.973Z,100823.13
2023-04-27T01:29:44.071Z,100820.00
2023-04-27T01:32:12.967Z,100820.25
2023-04-27T01:34:40.553Z,100814.66
2023-04-27T01:37:08.256Z,100828.78
2023-04-27T01:39:36.451Z,100820.59
2023-04-27T01:42:05.694Z,100818.03
2023-04-27T01:44:33.440Z,100804.97
2023-04-27T01:47:01.166Z,100801.44
2023-04-27T01:49:28.774Z,100791.38
2023-04-27T01:51:56.430Z,100790.69
2023-04-27T01:54:25.595Z,100781.03
2023-04-27T01:56:54.493Z,100775.59
2023-04-27T01:59:23.579Z,100777.94
2023-04-27T02:01:51.295Z,100777.09
2023-04-27T02:04:19.407Z,100775.88
2023-04-27T02:06:47.240Z,100781.41
2023-04-27T02:09:15.573Z,100773.53
2023-04-27T02:11:43.407Z,100758.06
2023-04-27T02:14:11.163Z,100761.22
2023-04-27T02:16:40.347Z,100758.91
2023-04-27T02:19:08.308Z,100740.34
2023-04-27T02:21:36.303Z,100741.28
2023-04-27T02:24:04.493Z,100735.75
2023-04-27T02:26:32.940Z,100735.06
2023-04-27T02:29:00.593Z,100734.50
2023-04-27T02:31:28.866Z,100725.97
2023-04-27T02:33:57.907Z,100717.25
2023-04-27T02:36:25.430Z,100722.94
2023-04-27T02:38:53.084Z,100721.72
2023-04-27T02:41:20.784Z,100717.19
2023-04-27T02:43:48.414Z,100715.69
2023-04-27T02:46:16.257Z,100704.69
2023-04-27T02:48:43.929Z,100712.56
2023-04-27T02:51:12.923Z,100714.31
2023-04-27T02:53:41.071Z,100711.97
2023-04-27T02:56:08.748Z,100711.94
2023-04-27T02:58:36.413Z,100716.72
2023-04-27T03:01:04.751Z,100720.25
2023-04-27T03:03:32.608Z,100682.53
2023-04-27T03:06:00.345Z,100721.47
2023-04-27T03:08:29.482Z,100733.66
2023-04-27T03:10:57.148Z,100743.28
2023-04-27T03:13:24.874Z,100746.00
2023-04-27T03:15:52.587Z,100756.03
2023-04-27T03:18:20.427Z,100756.19
2023-04-27T03:20:48.072Z,100713.03
2023-04-27T03:23:15.699Z,100758.06
2023-04-27T03:25:44.794Z,100763.47
2023-04-27T03:28:12.420Z,100761.25
2023-04-27T03:30:40.736Z,100764.53
2023-04-27T03:33:08.682Z,100764.75
2023-04-27T03:35:36.664Z,100757.56
2023-04-27T03:38:04.329Z,100763.16
2023-04-27T03:40:31.995Z,100759.59
2023-04-27T03:43:01.012Z,100760.13
2023-04-27T03:45:28.660Z,100767.84
2023-04-27T03:47:56.396Z,100765.41
2023-04-27T03:50:24.074Z,100761.75
2023-04-27T03:52:51.785Z,100756.41
2023-04-27T03:55:20.068Z,100760.13
2023-04-27T03:57:47.762Z,100766.47
2023-04-27T04:00:18.318Z,100762.25
2023-04-27T04:02:46.480Z,100764.81
2023-04-27T04:05:15.373Z,100769.16
2023-04-27T04:07:43.603Z,100768.50
2023-04-27T04:10:12.459Z,100763.47
2023-04-27T04:12:40.022Z,100764.53
2023-04-27T04:15:08.843Z,100765.47
2023-04-27T04:17:37.920Z,100775.19
2023-04-27T04:20:08.774Z,100770.72
2023-04-27T04:22:36.348Z,100776.00
2023-04-27T04:25:04.310Z,100778.69
2023-04-27T04:27:33.498Z,100775.41
2023-04-27T04:30:01.848Z,100780.44
2023-04-27T04:32:30.524Z,100777.06
2023-04-27T04:35:01.463Z,100777.06
2023-04-27T04:37:29.333Z,100766.56
2023-04-27T04:39:57.021Z,100776.00
2023-04-27T04:42:24.666Z,100778.69
2023-04-27T04:44:52.503Z,100774.06
2023-04-27T04:47:20.132Z,100778.69
2023-04-27T04:49:47.812Z,100786.50
2023-04-27T04:52:16.771Z,100783.56
2023-04-27T04:54:44.281Z,100782.59
2023-04-27T04:57:11.960Z,100777.09
2023-04-27T04:59:39.683Z,100778.59
2023-04-27T05:02:07.294Z,100774.81
2023-04-27T05:04:34.977Z,100777.28
2023-04-27T05:07:02.972Z,100772.56
2023-04-27T05:09:32.096Z,100770.53
2023-04-27T05:12:01.047Z,100765.72
2023-04-27T05:14:28.579Z,100761.13
2023-04-27T05:16:56.297Z,100750.56
2023-04-27T05:19:25.234Z,100763.09
2023-04-27T05:21:52.794Z,100761.78
2023-04-27T05:24:20.516Z,100761.38
2023-04-27T05:26:49.874Z,100765.09
2023-04-27T05:29:17.588Z,100763.75
2023-04-27T05:31:45.366Z,100753.75
2023-04-27T05:34:13.314Z,100754.03
2023-04-27T05:36:41.228Z,100716.00
2023-04-27T05:39:09.334Z,100753.03
2023-04-27T05:41:37.467Z,100748.31
2023-04-27T05:44:06.620Z,100745.19
2023-04-27T05:46:35.936Z,100738.81
2023-04-27T05:49:05.981Z,100739.34
2023-04-27T05:51:33.786Z,100742.34
2023-04-27T05:54:02.113Z,100732.44
2023-04-27T05:56:29.878Z,100714.78
2023-04-27T05:58:57.501Z,100710.53
2023-04-27T06:01:26.838Z,100704.56
2023-04-27T06:03:54.538Z,100710.66
2023-04-27T06:06:22.320Z,100706.44
2023-04-27T06:08:49.999Z,100711.69
2023-04-27T06:11:18.006Z,100709.44
2023-04-27T06:13:46.307Z,100704.91
2023-04-27T06:16:14.233Z,100703.25
2023-04-27T06:18:43.285Z,100721.22
2023-04-27T06:21:11.111Z,100726.69
2023-04-27T06:23:38.734Z,100733.84
2023-04-27T06:26:06.561Z,100740.59
2023-04-27T06:28:34.252Z,100745.31
2023-04-27T06:31:01.914Z,100751.16
2023-04-27T06:33:29.653Z,100752.22
2023-04-27T06:35:58.680Z,100755.94
2023-04-27T06:38:26.393Z,100774.94
2023-04-27T06:40:54.168Z,100787.53
2023-04-27T06:43:21.931Z,100820.44
2023-04-27T06:45:49.666Z,100818.75
2023-04-27T06:48:17.691Z,100799.84
2023-04-27T06:50:45.572Z,100823.53
2023-04-27T06:53:14.593Z,100865.22
2023-04-27T06:55:45.013Z,100879.00
2023-04-27T06:58:13.906Z,100876.72
2023-04-27T07:00:41.685Z,100938.34
2023-04-27T07:03:09.495Z,100916.22
2023-04-27T07:05:37.262Z,100965.13
2023-04-27T07:08:08.224Z,101023.06
2023-04-27T07:10:37.996Z,101014.97
2023-04-27T07:13:08.878Z,101061.63
2023-04-27T07:15:37.041Z,101105.19
2023-04-27T07:18:05.361Z,101146.66
2023-04-27T07:20:33.449Z,101200.19
2023-04-27T07:23:01.484Z,101219.06
2023-04-27T07:25:29.193Z,101212.91
2023-04-27T07:27:59.768Z,101205.50
2023-04-27T07:30:30.669Z,101204.34
2023-04-27T07:32:58.396Z,101245.88
2023-04-27T07:35:26.424Z,101343.09
2023-04-27T07:37:54.808Z,101338.38
2023-04-27T07:40:24.281Z,101367.19
2023-04-27T07:42:52.056Z,101372.56
2023-04-27T07:45:22.368Z,101359.75
2023-04-27T07:47:50.182Z,101363.50
2023-04-27T07:50:18.670Z,101352.34
2023-04-27T07:52:46.353Z,101487.16
2023-04-27T07:55:14.058Z,101499.44
2023-04-27T07:57:41.716Z,101484.28
2023-04-27T08:00:11.226Z,101497.44
2023-04-27T08:02:40.421Z,101462.19
2023-04-27T08:05:08.924Z,101542.19
2023-04-27T08:07:42.546Z,101608.44
2023-04-27T08:10:12.460Z,101651.03
2023-04-27T08:12:40.087Z,101607.50
2023-04-27T08:15:08.676Z,101637.25
2023-04-27T08:17:37.287Z,101656.88
2023-04-27T08:20:07.826Z,101697.91
2023-04-27T08:22:35.776Z,101715.13
2023-04-27T08:25:05.094Z,101639.28
2023-04-27T08:27:33.368Z,101690.78
2023-04-27T08:30:01.640Z,101680.19
2023-04-27T08:32:29.390Z,101669.66
2023-04-27T08:34:57.113Z,101703.47
2023-04-27T08:37:26.199Z,101734.53
2023-04-27T08:39:54.045Z,101747.00
2023-04-27T08:42:21.703Z,101749.31
2023-04-27T08:44:49.379Z,101728.28
2023-04-27T08:47:17.123Z,101752.75
2023-04-27T08:49:45.731Z,101740.94
2023-04-27T08:52:14.883Z,101683.66
2023-04-27T08:54:44.480Z,101780.81
2023-04-27T08:57:12.814Z,101777.38
2023-04-27T08:59:40.573Z,101839.00
2023-04-27T09:02:18.962Z,101876.03
2023-04-27T09:04:46.844Z,101861.44
2023-04-27T09:07:16.513Z,101865.97
2023-04-27T09:09:48.372Z,101920.50
2023-04-27T09:12:17.440Z,101949.44
2023-04-27T09:14:45.468Z,101919.78
2023-04-27T09:17:14.768Z,102000.47
2023-04-27T09:19:42.501Z,102009.59
2023-04-27T09:22:13.700Z,102014.94
2023-04-27T09:24:53.097Z,101975.56
2023-04-27T09:27:22.142Z,102012.28
2023-04-27T09:29:49.906Z,102023.47
2023-04-27T09:32:18.501Z,102020.56
2023-04-27T09:34:46.189Z,102004.69
2023-04-27T09:37:14.254Z,102014.44
2023-04-27T09:39:43.424Z,101984.22
2023-04-27T09:42:13.187Z,101974.50
2023-04-27T09:44:40.951Z,102022.22
2023-04-27T09:47:08.701Z,101987.88
2023-04-27T09:49:36.849Z,101988.50
2023-04-27T09:52:04.640Z,102010.00
2023-04-27T09:54:35.117Z,102023.78
2023-04-27T09:57:14.127Z,102014.63
2023-04-27T09:59:56.474Z,101998.34
2023-04-27T10:02:26.014Z,102008.78
2023-04-27T10:05:14.209Z,102002.09
2023-04-27T10:07:42.417Z,102005.22
2023-04-27T10:10:19.124Z,101993.19
2023-04-27T10:12:57.538Z,102010.72
2023-04-27T10:15:29.799Z,102027.53
2023-04-27T10:17:59.192Z,101991.00
2023-04-27T10:20:31.184Z,102000.50
2023-04-27T10:22:59.652Z,102016.81
2023-04-27T10:25:29.300Z,102003.22
2023-04-27T10:27:59.832Z,102004.59
2023-04-27T10:30:33.874Z,101966.75
2023-04-27T10:33:07.343Z,102023.69
2023-04-27T10:35:37.041Z,101999.19
2023-04-27T10:38:09.427Z,102008.84
2023-04-27T10:40:38.178Z,102001.69
2023-04-27T10:43:10.441Z,102012.19
2023-04-27T10:45:39.752Z,101973.31
2023-04-27T10:48:08.175Z,101997.03
2023-04-27T10:50:37.041Z,102010.28
2023-04-27T10:53:06.586Z,101994.09
2023-04-27T10:55:35.277Z,102013.47
2023-04-27T10:58:04.244Z,101989.69
2023-04-27T11:00:33.275Z,101989.94
2023-04-27T11:03:14.793Z,102012.72
2023-04-27T11:05:44.563Z,102008.88
2023-04-27T11:08:14.444Z,101999.28
2023-04-27T11:10:44.891Z,102000.97
2023-04-27T11:13:15.021Z,101982.44
2023-04-27T11:15:44.872Z,101992.47
2023-04-27T11:18:14.091Z,101981.19
2023-04-27T11:20:41.891Z,101957.16
2023-04-27T11:23:12.063Z,101967.94
2023-04-27T11:25:39.792Z,101983.84
2023-04-27T11:28:18.296Z,101972.59
2023-04-27T11:30:46.357Z,101959.41
2023-04-27T11:33:15.586Z,101963.88
2023-04-27T11:35:43.444Z,101971.00
2023-04-27T11:38:18.081Z,101967.78
2023-04-27T11:40:46.005Z,101959.31
2023-04-27T11:43:14.210Z,101947.06
2023-04-27T11:45:44.660Z,101958.06
2023-04-27T11:48:16.638Z,101950.41
2023-04-27T11:50:48.664Z,101957.63
2023-04-27T11:53:18.674Z,101961.53
2023-04-27T11:55:53.495Z,101960.56
2023-04-27T11:58:22.508Z,101962.66
2023-04-27T12:00:50.223Z,101964.59
2023-04-27T12:03:19.453Z,101952.28
2023-04-27T12:05:51.205Z,101946.66
2023-04-27T12:08:19.087Z,101962.28
2023-04-27T12:10:47.392Z,101954.88
2023-04-27T12:13:15.313Z,101950.59
2023-04-27T12:15:43.724Z,101944.88
2023-04-27T12:18:12.048Z,101944.88
2023-04-27T12:20:41.180Z,101945.75
2023-04-27T12:23:08.857Z,101941.72
2023-04-27T12:25:36.537Z,101940.53
2023-04-27T12:28:04.453Z,101929.59
2023-04-27T12:30:32.191Z,101926.06
2023-04-27T12:33:00.900Z,101926.00
2023-04-27T12:35:31.727Z,101910.19
2023-04-27T12:38:01.139Z,101925.84
2023-04-27T12:40:28.865Z,101932.75
2023-04-27T12:42:57.920Z,101920.06
2023-04-27T12:45:26.784Z,101911.91
2023-04-27T12:48:02.704Z,101921.97
2023-04-27T12:50:32.763Z,101926.06
2023-04-27T12:53:01.896Z,101916.91
2023-04-27T12:55:33.625Z,101919.06
2023-04-27T12:58:02.287Z,101914.94
2023-04-27T13:00:30.440Z,101916.06
2023-04-27T13:02:58.361Z,101913.03
2023-04-27T13:05:26.384Z,101914.81
2023-04-27T13:07:53.972Z,101913.22
2023-04-27T13:10:23.074Z,101908.50
2023-04-27T13:12:50.892Z,101878.66
2023-04-27T13:15:18.810Z,101913.00
2023-04-27T13:17:46.516Z,101905.47
2023-04-27T13:20:15.385Z,101899.81
2023-04-27T13:22:43.484Z,101900.75
2023-04-27T13:25:11.326Z,101889.81
2023-04-27T13:27:40.373Z,101888.97
2023-04-27T13:30:09.532Z,101888.00
2023-04-27T13:32:37.348Z,101895.66
2023-04-27T13:35:05.610Z,101885.09
2023-04-27T13:37:33.496Z,101889.56
2023-04-27T13:40:01.190Z,101886.00
2023-04-27T13:42:29.641Z,101884.28
2023-04-27T13:44:58.856Z,101872.88
2023-04-27T13:47:29.229Z,101884.59
2023-04-27T13:49:56.963Z,101875.31
2023-04-27T13:52:24.636Z,101879.88
2023-04-27T13:54:52.609Z,101876.28
2023-04-27T13:57:20.340Z,101860.75
2023-04-27T13:59:48.080Z,101864.91
2023-04-27T14:02:17.227Z,101856.38
2023-04-27T14:04:44.926Z,101864.97
2023-04-27T14:07:12.642Z,101847.78
2023-04-27T14:09:40.327Z,101847.75
2023-04-27T14:12:08.628Z,101844.78
2023-04-27T14:14:36.836Z,101844.66
2023-04-27T14:17:05.170Z,101839.09
2023-04-27T14:19:34.299Z,101850.31
2023-04-27T14:22:02.219Z,101843.88
2023-04-27T14:24:30.416Z,101836.59
2023-04-27T14:26:58.152Z,101834.00
2023-04-27T14:29:26.596Z,101833.38
2023-04-27T14:31:54.918Z,101821.19
2023-04-27T14:34:22.745Z,101822.50
2023-04-27T14:36:51.762Z,101816.00
2023-04-27T14:39:19.434Z,101829.38
2023-04-27T14:41:47.137Z,101822.56
2023-04-27T14:44:14.851Z,101820.31
2023-04-27T14:46:42.708Z,101830.47
2023-04-27T14:49:10.691Z,101811.66
2023-04-27T14:51:38.394Z,101800.47
2023-04-27T14:54:09.124Z,101806.09
2023-04-27T14:56:36.869Z,101795.94
2023-04-27T14:59:04.538Z,101786.16
2023-04-27T15:01:32.507Z,101789.81
2023-04-27T15:04:00.364Z,101788.22
2023-04-27T15:06:28.583Z,101786.91
2023-04-27T15:08:56.307Z,101793.13
2023-04-27T15:11:25.391Z,101790.72
2023-04-27T15:13:53.058Z,101779.38
2023-04-27T15:16:20.944Z,101779.78
2023-04-27T15:18:48.681Z,101772.72
2023-04-27T15:21:16.359Z,101781.09
2023-04-27T15:23:44.036Z,101774.81
2023-04-27T15:26:11.694Z,101774.88
2023-04-27T15:28:40.919Z,101766.69
2023-04-27T15:31:09.198Z,101765.56
2023-04-27T15:33:37.046Z,101758.38
2023-04-27T15:36:05.126Z,101769.88
2023-04-27T15:38:32.740Z,101759.56
2023-04-27T15:41:00.398Z,101764.63
2023-04-27T15:43:28.104Z,101743.06
2023-04-27T15:45:57.068Z,101741.03
2023-04-27T15:48:24.874Z,101736.19
2023-04-27T15:50:52.650Z,101737.28
2023-04-27T15:53:20.368Z,101726.59
2023-04-27T15:55:48.112Z,101740.19
2023-04-27T15:58:16.646Z,101738.31
2023-04-27T16:00:44.418Z,101742.19
2023-04-27T16:03:14.288Z,101740.69
2023-04-27T16:05:42.254Z,101737.97
2023-04-27T16:08:09.950Z,101724.38
2023-04-27T16:10:37.576Z,101730.84
2023-04-27T16:13:05.292Z,101719.53
2023-04-27T16:15:32.918Z,101722.41
2023-04-27T16:18:00.682Z,101715.41
2023-04-27T16:20:31.683Z,101700.41
2023-04-27T16:23:00.037Z,101702.16
2023-04-27T16:25:28.112Z,101705.19
2023-04-27T16:27:55.848Z,101704.91
2023-04-27T16:30:24.277Z,101700.34
2023-04-27T16:32:52.918Z,101700.75
2023-04-27T16:35:20.839Z,101695.13
2023-04-27T16:37:50.662Z,101687.91
2023-04-27T16:40:18.455Z,101679.28
2023-04-27T16:42:46.114Z,101667.88
2023-04-27T16:45:13.803Z,101669.00
2023-04-27T16:47:41.930Z,101672.31
2023-04-27T16:50:10.617Z,101665.78
2023-04-27T16:52:38.159Z,101673.56
2023-04-27T16:55:08.198Z,101669.59
2023-04-27T16:57:35.868Z,101660.09
2023-04-27T17:00:05.926Z,101648.22
2023-04-27T17:02:33.757Z,101656.88
2023-04-27T17:05:01.792Z,101667.03
2023-04-27T17:07:32.559Z,101660.28
2023-04-27T17:10:01.171Z,101673.81
2023-04-27T17:12:30.109Z,101686.94
2023-04-27T17:14:57.847Z,101674.59
2023-04-27T17:17:25.667Z,101665.13
2023-04-27T17:19:53.431Z,101653.22
2023-04-27T17:22:21.168Z,101655.19
2023-04-27T17:24:48.948Z,101676.88
2023-04-27T17:27:16.614Z,101665.81
2023-04-27T17:29:45.930Z,101668.75
2023-04-27T17:32:13.720Z,101646.44
2023-04-27T17:34:43.061Z,101600.38
2023-04-27T17:37:10.903Z,101645.69
2023-04-27T17:39:38.835Z,101632.16
2023-04-27T17:42:11.980Z,101657.63
2023-04-27T17:44:42.075Z,101641.31
2023-04-27T17:47:11.558Z,101634.47
2023-04-27T17:49:39.301Z,101647.09
2023-04-27T17:52:07.132Z,101655.03
2023-04-27T17:54:34.853Z,101650.50
2023-04-27T17:57:02.896Z,101652.66
2023-04-27T17:59:30.586Z,101654.03
2023-04-27T18:01:58.610Z,101630.44
2023-04-27T18:04:28.062Z,101620.09
2023-04-27T18:06:56.113Z,101614.03
2023-04-27T18:09:26.170Z,101611.91
2023-04-27T18:11:53.977Z,101608.28
2023-04-27T18:14:21.646Z,101618.13
2023-04-27T18:16:49.367Z,101609.06
2023-04-27T18:19:17.356Z,101602.56
2023-04-27T18:21:46.513Z,101623.16
2023-04-27T18:24:14.208Z,101605.47
2023-04-27T18:26:41.881Z,101623.53
2023-04-27T18:29:09.492Z,101617.22
2023-04-27T18:31:38.055Z,101596.72
2023-04-27T18:34:06.292Z,101601.06
2023-04-27T18:36:34.156Z,101615.25
2023-04-27T18:39:03.314Z,101561.03
2023-04-27T18:41:30.949Z,101551.66
2023-04-27T18:44:04.090Z,101567.03
2023-04-27T18:46:31.860Z,101556.25
2023-04-27T18:48:59.507Z,101580.06
2023-04-27T18:51:27.244Z,101561.06
2023-04-27T18:53:54.949Z,101585.22
2023-04-27T18:56:24.175Z,101565.91
2023-04-27T18:58:53.225Z,101540.22
2023-04-27T19:01:22.097Z,101561.47
2023-04-27T19:03:50.018Z,101560.88
2023-04-27T19:06:20.186Z,101561.38
2023-04-27T19:08:48.567Z,101568.47
2023-04-27T19:11:16.449Z,101516.59
2023-04-27T19:13:45.789Z,101521.84
2023-04-27T19:16:15.274Z,101527.63
2023-04-27T19:18:43.536Z,101519.13
2023-04-27T19:21:11.407Z,101564.97
2023-04-27T19:23:39.171Z,101546.97
2023-04-27T19:26:13.204Z,101547.47
2023-04-27T19:28:41.838Z,101561.03
2023-04-27T19:31:10.881Z,101533.63
2023-04-27T19:36:13.945Z,101551.59
2023-04-27T19:38:41.747Z,101519.03
2023-04-27T19:41:09.407Z,101519.06
2023-04-27T19:43:37.027Z,101522.16
2023-04-27T19:46:04.771Z,101531.66
2023-04-27T19:48:34.017Z,101518.91
2023-04-27T19:51:01.729Z,101520.53
2023-04-27T19:53:29.444Z,101527.41
2023-04-27T19:55:58.854Z,101525.47
2023-04-27T19:58:27.878Z,101540.34
2023-04-27T20:00:55.636Z,101490.38
2023-04-27T20:03:23.476Z,101513.72
2023-04-27T20:05:53.023Z,101507.50
2023-04-27T20:08:20.890Z,101462.09
2023-04-27T20:10:48.559Z,101493.78
2023-04-27T20:13:16.318Z,101481.19
2023-04-27T20:15:44.505Z,101488.06
2023-04-27T20:18:12.303Z,101495.75
2023-04-27T20:20:41.883Z,101460.50
2023-04-27T20:23:11.030Z,101475.34
2023-04-27T20:25:38.939Z,101477.13
2023-04-27T20:28:06.593Z,101438.91
2023-04-27T20:30:34.331Z,101475.38
2023-04-27T20:33:03.705Z,101429.13
2023-04-27T20:35:31.369Z,101416.41
2023-04-27T20:37:59.030Z,101439.28
2023-04-27T20:40:28.090Z,101426.22
2023-04-27T20:42:56.374Z,101427.25
2023-04-27T20:45:25.476Z,101406.97
2023-04-27T20:47:53.502Z,101427.25
2023-04-27T20:50:21.424Z,101432.28
2023-04-27T20:52:49.127Z,101426.41
2023-04-27T20:55:17.017Z,101428.72
2023-04-27T20:57:46.005Z,101370.13
2023-04-27T21:00:15.445Z,101378.44
2023-04-27T21:02:43.385Z,101355.91
2023-04-27T21:05:11.541Z,101371.28
2023-04-27T21:07:39.352Z,101313.03
2023-04-27T21:10:08.323Z,101295.38
2023-04-27T21:12:36.070Z,101325.44
2023-04-27T21:15:05.826Z,101319.72
2023-04-27T21:17:33.530Z,101291.16
2023-04-27T21:20:01.308Z,101272.69
2023-04-27T21:22:29.019Z,101306.47
2023-04-27T21:24:56.667Z,101271.75
2023-04-27T21:27:25.052Z,101283.34
2023-04-27T21:29:53.332Z,101278.16
2023-04-27T21:32:22.754Z,101267.72
2023-04-27T21:34:50.530Z,101240.78
2023-04-27T21:37:18.331Z,101238.66
2023-04-27T21:39:46.043Z,101233.28
2023-04-27T21:42:13.715Z,101192.81
2023-04-27T21:44:41.600Z,101169.50
2023-04-27T21:47:09.292Z,101179.94
2023-04-27T21:49:38.385Z,101145.34
2023-04-27T21:52:06.276Z,101150.75
2023-04-27T21:54:34.071Z,101140.66
2023-04-27T21:57:02.191Z,101123.88
2023-04-27T21:59:29.977Z,101092.06
2023-04-27T22:01:59.211Z,101101.69
2023-04-27T22:04:27.069Z,101073.03
2023-04-27T22:06:56.276Z,101075.16
2023-04-27T22:09:23.934Z,101063.91
2023-04-27T22:11:51.836Z,101065.88
2023-04-27T22:14:19.558Z,101047.13
2023-04-27T22:16:48.867Z,101059.34
2023-04-27T22:19:17.826Z,101032.59
2023-04-27T22:21:45.719Z,101009.59
2023-04-27T22:24:15.101Z,100998.97
2023-04-27T22:26:42.959Z,100998.78
2023-04-27T22:29:10.561Z,100979.31
2023-04-27T22:31:38.439Z,100964.47
2023-04-27T22:34:06.258Z,100949.97
2023-04-27T22:36:34.794Z,100932.69
2023-04-27T22:39:02.515Z,100917.06
2023-04-27T22:41:31.592Z,100907.78
2023-04-27T22:43:59.320Z,100902.28
2023-04-27T22:46:27.064Z,100895.81
2023-04-27T22:48:55.036Z,100888.94
2023-04-27T22:51:23.741Z,100877.75
2023-04-27T22:53:51.493Z,100877.97
2023-04-27T22:56:19.235Z,100875.03
2023-04-27T22:58:48.244Z,100869.28
2023-04-27T23:01:15.953Z,100861.28
2023-04-27T23:03:43.786Z,100828.72
2023-04-27T23:06:14.277Z,100836.72
2023-04-27T23:08:44.745Z,100834.94
2023-04-27T23:11:15.231Z,100842.28
2023-04-27T23:13:42.904Z,100825.50
2023-04-27T23:16:11.934Z,100814.34
2023-04-27T23:18:39.661Z,100828.59
2023-04-27T23:21:07.449Z,100800.56
2023-04-27T23:23:35.091Z,100793.22
2023-04-27T23:26:02.874Z,100770.09
2023-04-27T23:28:30.478Z,100782.34
2023-04-27T23:30:58.244Z,100770.34
2023-04-27T23:33:27.271Z,100758.13
2023-04-27T23:35:56.132Z,100709.09
2023-04-27T23:38:24.071Z,100695.59
2023-04-27T23:40:52.101Z,100705.84
2023-04-27T23:43:19.822Z,100702.69
2023-04-27T23:45:50.519Z,100670.59
2023-04-27T23:48:18.294Z,100684.78
2023-04-27T23:50:47.447Z,100687.38
2023-04-27T23:53:15.243Z,100697.34
2023-04-27T23:55:42.925Z,100679.09
2023-04-27T23:58:10.664Z,100682.63
